sensor_id;sensor_type;location;lat;lon;timestamp;P1;durP1;ratioP1;P2;durP2;ratioP2
65835;SDS011;52595;51.608;7.216;2024-01-27T00:01:31;29.90;;;5.47;;
65835;SDS011;52595;51.608;7.216;2024-01-27T00:03:57;16.38;;;5.13;;
65835;SDS011;52595;51.608;7.216;2024-01-27T00:06:22;20.17;;;5.35;;
65835;SDS011;52595;51.608;7.216;2024-01-27T00:08:47;19.17;;;5.25;;
65835;SDS011;52595;51.608;7.216;2024-01-27T00:11:13;21.80;;;5.30;;
65835;SDS011;52595;51.608;7.216;2024-01-27T00:13:38;17.85;;;5.20;;
65835;SDS011;52595;51.608;7.216;2024-01-27T00:16:04;20.63;;;5.60;;
65835;SDS011;52595;51.608;7.216;2024-01-27T00:18:29;31.38;;;5.90;;
65835;SDS011;52595;51.608;7.216;2024-01-27T00:20:55;21.42;;;5.47;;
65835;SDS011;52595;51.608;7.216;2024-01-27T00:23:20;18.95;;;5.80;;
65835;SDS011;52595;51.608;7.216;2024-01-27T00:25:45;18.73;;;5.68;;
65835;SDS011;52595;51.608;7.216;2024-01-27T00:28:11;21.08;;;5.35;;
65835;SDS011;52595;51.608;7.216;2024-01-27T00:30:36;23.83;;;6.05;;
65835;SDS011;52595;51.608;7.216;2024-01-27T00:33:01;26.35;;;6.47;;
65835;SDS011;52595;51.608;7.216;2024-01-27T00:35:28;21.88;;;6.43;;
65835;SDS011;52595;51.608;7.216;2024-01-27T00:37:53;18.83;;;5.85;;
65835;SDS011;52595;51.608;7.216;2024-01-27T00:40:19;25.50;;;6.28;;
65835;SDS011;52595;51.608;7.216;2024-01-27T00:42:44;24.00;;;6.05;;
65835;SDS011;52595;51.608;7.216;2024-01-27T00:45:09;23.40;;;5.50;;
65835;SDS011;52595;51.608;7.216;2024-01-27T00:47:35;23.80;;;6.13;;
65835;SDS011;52595;51.608;7.216;2024-01-27T00:50:00;20.10;;;5.55;;
65835;SDS011;52595;51.608;7.216;2024-01-27T00:52:26;17.65;;;5.50;;
65835;SDS011;52595;51.608;7.216;2024-01-27T00:54:51;16.60;;;5.72;;
65835;SDS011;52595;51.608;7.216;2024-01-27T00:57:17;18.15;;;5.53;;
65835;SDS011;52595;51.608;7.216;2024-01-27T00:59:42;17.98;;;5.70;;
65835;SDS011;52595;51.608;7.216;2024-01-27T01:02:07;20.77;;;5.50;;
65835;SDS011;52595;51.608;7.216;2024-01-27T01:04:33;28.38;;;5.75;;
65835;SDS011;52595;51.608;7.216;2024-01-27T01:06:58;26.77;;;5.85;;
65835;SDS011;52595;51.608;7.216;2024-01-27T01:09:24;23.83;;;5.45;;
65835;SDS011;52595;51.608;7.216;2024-01-27T01:11:49;20.88;;;6.70;;
65835;SDS011;52595;51.608;7.216;2024-01-27T01:14:15;24.13;;;7.22;;
65835;SDS011;52595;51.608;7.216;2024-01-27T01:16:40;21.83;;;6.55;;
65835;SDS011;52595;51.608;7.216;2024-01-27T01:19:06;22.33;;;6.80;;
65835;SDS011;52595;51.608;7.216;2024-01-27T01:21:31;23.50;;;6.68;;
65835;SDS011;52595;51.608;7.216;2024-01-27T01:23:57;17.33;;;6.10;;
65835;SDS011;52595;51.608;7.216;2024-01-27T01:26:22;21.88;;;6.15;;
65835;SDS011;52595;51.608;7.216;2024-01-27T01:28:49;27.08;;;6.30;;
65835;SDS011;52595;51.608;7.216;2024-01-27T01:31:15;18.80;;;6.85;;
65835;SDS011;52595;51.608;7.216;2024-01-27T01:33:40;25.52;;;5.97;;
65835;SDS011;52595;51.608;7.216;2024-01-27T01:36:05;17.00;;;6.63;;
65835;SDS011;52595;51.608;7.216;2024-01-27T01:38:31;30.92;;;7.00;;
65835;SDS011;52595;51.608;7.216;2024-01-27T01:40:56;23.02;;;6.82;;
65835;SDS011;52595;51.608;7.216;2024-01-27T01:43:22;26.73;;;6.75;;
65835;SDS011;52595;51.608;7.216;2024-01-27T01:45:47;30.80;;;7.13;;
65835;SDS011;52595;51.608;7.216;2024-01-27T01:48:13;23.92;;;7.18;;
65835;SDS011;52595;51.608;7.216;2024-01-27T01:50:38;28.15;;;7.93;;
65835;SDS011;52595;51.608;7.216;2024-01-27T01:53:04;22.77;;;6.63;;
65835;SDS011;52595;51.608;7.216;2024-01-27T01:55:30;19.52;;;6.90;;
65835;SDS011;52595;51.608;7.216;2024-01-27T01:57:56;20.52;;;6.43;;
65835;SDS011;52595;51.608;7.216;2024-01-27T02:00:21;20.25;;;6.90;;
65835;SDS011;52595;51.608;7.216;2024-01-27T02:02:47;19.20;;;6.55;;
65835;SDS011;52595;51.608;7.216;2024-01-27T02:05:13;21.63;;;6.50;;
65835;SDS011;52595;51.608;7.216;2024-01-27T02:07:39;22.20;;;6.32;;
65835;SDS011;52595;51.608;7.216;2024-01-27T02:10:05;16.60;;;6.63;;
65835;SDS011;52595;51.608;7.216;2024-01-27T02:12:33;24.73;;;7.82;;
65835;SDS011;52595;51.608;7.216;2024-01-27T02:14:58;19.48;;;6.88;;
65835;SDS011;52595;51.608;7.216;2024-01-27T02:17:23;21.83;;;6.95;;
65835;SDS011;52595;51.608;7.216;2024-01-27T02:19:49;23.85;;;7.63;;
65835;SDS011;52595;51.608;7.216;2024-01-27T02:22:14;24.70;;;7.75;;
65835;SDS011;52595;51.608;7.216;2024-01-27T02:24:39;22.50;;;6.80;;
65835;SDS011;52595;51.608;7.216;2024-01-27T02:27:05;24.02;;;7.20;;
65835;SDS011;52595;51.608;7.216;2024-01-27T02:29:30;24.30;;;7.00;;
65835;SDS011;52595;51.608;7.216;2024-01-27T02:31:56;29.33;;;7.45;;
65835;SDS011;52595;51.608;7.216;2024-01-27T02:34:21;22.90;;;7.22;;
65835;SDS011;52595;51.608;7.216;2024-01-27T02:36:46;26.20;;;7.03;;
65835;SDS011;52595;51.608;7.216;2024-01-27T02:39:12;26.00;;;7.47;;
65835;SDS011;52595;51.608;7.216;2024-01-27T02:41:37;30.38;;;7.25;;
65835;SDS011;52595;51.608;7.216;2024-01-27T02:44:04;22.92;;;7.82;;
65835;SDS011;52595;51.608;7.216;2024-01-27T02:46:32;27.23;;;7.25;;
65835;SDS011;52595;51.608;7.216;2024-01-27T02:48:57;31.02;;;7.78;;
65835;SDS011;52595;51.608;7.216;2024-01-27T02:51:23;24.17;;;7.80;;
65835;SDS011;52595;51.608;7.216;2024-01-27T02:53:48;26.33;;;7.53;;
65835;SDS011;52595;51.608;7.216;2024-01-27T02:56:15;23.63;;;7.95;;
65835;SDS011;52595;51.608;7.216;2024-01-27T02:58:41;24.20;;;8.07;;
65835;SDS011;52595;51.608;7.216;2024-01-27T03:01:07;19.25;;;7.40;;
65835;SDS011;52595;51.608;7.216;2024-01-27T03:03:32;25.88;;;7.50;;
65835;SDS011;52595;51.608;7.216;2024-01-27T03:05:58;23.63;;;7.82;;
65835;SDS011;52595;51.608;7.216;2024-01-27T03:08:23;17.42;;;6.82;;
65835;SDS011;52595;51.608;7.216;2024-01-27T03:10:49;24.88;;;7.88;;
65835;SDS011;52595;51.608;7.216;2024-01-27T03:13:15;23.52;;;7.25;;
65835;SDS011;52595;51.608;7.216;2024-01-27T03:15:41;25.20;;;7.80;;
65835;SDS011;52595;51.608;7.216;2024-01-27T03:18:08;24.55;;;7.47;;
65835;SDS011;52595;51.608;7.216;2024-01-27T03:20:33;21.35;;;6.95;;
65835;SDS011;52595;51.608;7.216;2024-01-27T03:22:59;23.77;;;7.78;;
65835;SDS011;52595;51.608;7.216;2024-01-27T03:25:24;19.15;;;6.95;;
65835;SDS011;52595;51.608;7.216;2024-01-27T03:27:51;24.20;;;7.63;;
65835;SDS011;52595;51.608;7.216;2024-01-27T03:30:17;22.75;;;7.53;;
65835;SDS011;52595;51.608;7.216;2024-01-27T03:32:42;28.02;;;8.00;;
65835;SDS011;52595;51.608;7.216;2024-01-27T03:35:07;29.80;;;9.98;;
65835;SDS011;52595;51.608;7.216;2024-01-27T03:37:33;23.75;;;7.88;;
65835;SDS011;52595;51.608;7.216;2024-01-27T03:39:59;18.23;;;6.85;;
65835;SDS011;52595;51.608;7.216;2024-01-27T03:42:25;22.40;;;7.90;;
65835;SDS011;52595;51.608;7.216;2024-01-27T03:44:50;20.75;;;7.85;;
65835;SDS011;52595;51.608;7.216;2024-01-27T03:47:16;22.40;;;7.55;;
65835;SDS011;52595;51.608;7.216;2024-01-27T03:49:42;19.58;;;7.28;;
65835;SDS011;52595;51.608;7.216;2024-01-27T03:52:08;31.83;;;7.78;;
65835;SDS011;52595;51.608;7.216;2024-01-27T03:54:33;21.73;;;8.50;;
65835;SDS011;52595;51.608;7.216;2024-01-27T03:56:58;32.13;;;8.73;;
65835;SDS011;52595;51.608;7.216;2024-01-27T03:59:24;26.98;;;8.52;;
65835;SDS011;52595;51.608;7.216;2024-01-27T04:01:49;23.27;;;8.27;;
65835;SDS011;52595;51.608;7.216;2024-01-27T04:04:14;21.83;;;8.00;;
65835;SDS011;52595;51.608;7.216;2024-01-27T04:06:40;28.75;;;8.27;;
65835;SDS011;52595;51.608;7.216;2024-01-27T04:09:06;21.75;;;8.38;;
65835;SDS011;52595;51.608;7.216;2024-01-27T04:11:34;29.13;;;8.63;;
65835;SDS011;52595;51.608;7.216;2024-01-27T04:14:00;30.67;;;8.73;;
65835;SDS011;52595;51.608;7.216;2024-01-27T04:16:26;22.63;;;9.52;;
65835;SDS011;52595;51.608;7.216;2024-01-27T04:18:52;23.20;;;9.57;;
65835;SDS011;52595;51.608;7.216;2024-01-27T04:21:17;28.85;;;9.38;;
65835;SDS011;52595;51.608;7.216;2024-01-27T04:23:43;27.02;;;9.40;;
65835;SDS011;52595;51.608;7.216;2024-01-27T04:26:08;35.88;;;10.20;;
65835;SDS011;52595;51.608;7.216;2024-01-27T04:28:35;26.40;;;9.75;;
65835;SDS011;52595;51.608;7.216;2024-01-27T04:31:01;26.00;;;9.63;;
65835;SDS011;52595;51.608;7.216;2024-01-27T04:33:26;29.33;;;10.45;;
65835;SDS011;52595;51.608;7.216;2024-01-27T04:35:52;27.92;;;10.70;;
65835;SDS011;52595;51.608;7.216;2024-01-27T04:38:17;30.73;;;10.82;;
65835;SDS011;52595;51.608;7.216;2024-01-27T04:40:42;33.33;;;10.95;;
65835;SDS011;52595;51.608;7.216;2024-01-27T04:43:08;28.80;;;10.25;;
65835;SDS011;52595;51.608;7.216;2024-01-27T04:45:33;26.02;;;10.18;;
65835;SDS011;52595;51.608;7.216;2024-01-27T04:47:59;32.30;;;10.68;;
65835;SDS011;52595;51.608;7.216;2024-01-27T04:50:26;27.60;;;10.18;;
65835;SDS011;52595;51.608;7.216;2024-01-27T04:52:51;30.50;;;10.18;;
65835;SDS011;52595;51.608;7.216;2024-01-27T04:55:17;29.00;;;11.07;;
65835;SDS011;52595;51.608;7.216;2024-01-27T04:57:42;30.75;;;10.75;;
65835;SDS011;52595;51.608;7.216;2024-01-27T05:00:08;27.13;;;10.63;;
65835;SDS011;52595;51.608;7.216;2024-01-27T05:02:38;28.17;;;10.25;;
65835;SDS011;52595;51.608;7.216;2024-01-27T05:05:07;21.63;;;10.20;;
65835;SDS011;52595;51.608;7.216;2024-01-27T05:07:33;36.47;;;10.73;;
65835;SDS011;52595;51.608;7.216;2024-01-27T05:09:58;33.60;;;11.10;;
65835;SDS011;52595;51.608;7.216;2024-01-27T05:12:24;28.65;;;11.13;;
65835;SDS011;52595;51.608;7.216;2024-01-27T05:14:50;33.75;;;11.20;;
65835;SDS011;52595;51.608;7.216;2024-01-27T05:17:15;30.50;;;10.85;;
65835;SDS011;52595;51.608;7.216;2024-01-27T05:19:40;28.45;;;11.10;;
65835;SDS011;52595;51.608;7.216;2024-01-27T05:22:06;31.65;;;10.70;;
65835;SDS011;52595;51.608;7.216;2024-01-27T05:24:31;29.35;;;10.45;;
65835;SDS011;52595;51.608;7.216;2024-01-27T05:26:57;31.90;;;11.55;;
65835;SDS011;52595;51.608;7.216;2024-01-27T05:29:22;25.20;;;10.70;;
65835;SDS011;52595;51.608;7.216;2024-01-27T05:31:47;31.48;;;11.80;;
65835;SDS011;52595;51.608;7.216;2024-01-27T05:34:13;30.45;;;11.38;;
65835;SDS011;52595;51.608;7.216;2024-01-27T05:36:39;35.38;;;11.60;;
65835;SDS011;52595;51.608;7.216;2024-01-27T05:39:05;29.58;;;11.77;;
65835;SDS011;52595;51.608;7.216;2024-01-27T05:41:31;27.92;;;11.98;;
65835;SDS011;52595;51.608;7.216;2024-01-27T05:43:56;32.92;;;13.07;;
65835;SDS011;52595;51.608;7.216;2024-01-27T05:46:23;34.08;;;12.73;;
65835;SDS011;52595;51.608;7.216;2024-01-27T05:48:51;32.35;;;12.80;;
65835;SDS011;52595;51.608;7.216;2024-01-27T05:51:26;36.42;;;13.07;;
65835;SDS011;52595;51.608;7.216;2024-01-27T05:53:51;38.15;;;12.77;;
65835;SDS011;52595;51.608;7.216;2024-01-27T05:56:16;37.00;;;12.15;;
65835;SDS011;52595;51.608;7.216;2024-01-27T05:58:48;36.88;;;12.90;;
65835;SDS011;52595;51.608;7.216;2024-01-27T06:01:13;34.72;;;12.27;;
65835;SDS011;52595;51.608;7.216;2024-01-27T06:03:42;32.97;;;13.25;;
65835;SDS011;52595;51.608;7.216;2024-01-27T06:06:08;31.30;;;12.40;;
65835;SDS011;52595;51.608;7.216;2024-01-27T06:08:33;44.00;;;13.55;;
65835;SDS011;52595;51.608;7.216;2024-01-27T06:10:59;40.13;;;12.70;;
65835;SDS011;52595;51.608;7.216;2024-01-27T06:13:24;34.22;;;12.45;;
65835;SDS011;52595;51.608;7.216;2024-01-27T06:15:50;30.35;;;13.10;;
65835;SDS011;52595;51.608;7.216;2024-01-27T06:18:15;34.67;;;13.18;;
65835;SDS011;52595;51.608;7.216;2024-01-27T06:20:41;35.30;;;12.93;;
65835;SDS011;52595;51.608;7.216;2024-01-27T06:23:07;28.48;;;12.43;;
65835;SDS011;52595;51.608;7.216;2024-01-27T06:25:32;38.38;;;13.52;;
65835;SDS011;52595;51.608;7.216;2024-01-27T06:27:58;32.47;;;12.55;;
65835;SDS011;52595;51.608;7.216;2024-01-27T06:30:23;28.98;;;12.18;;
65835;SDS011;52595;51.608;7.216;2024-01-27T06:32:49;28.75;;;11.98;;
65835;SDS011;52595;51.608;7.216;2024-01-27T06:35:14;26.45;;;11.55;;
65835;SDS011;52595;51.608;7.216;2024-01-27T06:37:40;35.67;;;12.30;;
65835;SDS011;52595;51.608;7.216;2024-01-27T06:40:05;29.25;;;11.13;;
65835;SDS011;52595;51.608;7.216;2024-01-27T06:42:32;27.60;;;10.48;;
65835;SDS011;52595;51.608;7.216;2024-01-27T06:44:57;22.10;;;10.18;;
65835;SDS011;52595;51.608;7.216;2024-01-27T06:47:23;24.95;;;9.68;;
65835;SDS011;52595;51.608;7.216;2024-01-27T06:49:48;25.73;;;9.70;;
65835;SDS011;52595;51.608;7.216;2024-01-27T06:52:14;28.60;;;10.38;;
65835;SDS011;52595;51.608;7.216;2024-01-27T06:54:39;28.95;;;10.35;;
65835;SDS011;52595;51.608;7.216;2024-01-27T06:57:17;32.22;;;9.98;;
65835;SDS011;52595;51.608;7.216;2024-01-27T06:59:44;27.35;;;9.98;;
65835;SDS011;52595;51.608;7.216;2024-01-27T07:02:09;26.02;;;10.05;;
65835;SDS011;52595;51.608;7.216;2024-01-27T07:04:39;25.75;;;9.55;;
65835;SDS011;52595;51.608;7.216;2024-01-27T07:07:04;24.08;;;9.63;;
65835;SDS011;52595;51.608;7.216;2024-01-27T07:09:29;24.95;;;9.60;;
65835;SDS011;52595;51.608;7.216;2024-01-27T07:11:55;20.25;;;9.30;;
65835;SDS011;52595;51.608;7.216;2024-01-27T07:14:20;28.88;;;9.68;;
65835;SDS011;52595;51.608;7.216;2024-01-27T07:16:46;21.48;;;9.55;;
65835;SDS011;52595;51.608;7.216;2024-01-27T07:19:11;28.42;;;10.35;;
65835;SDS011;52595;51.608;7.216;2024-01-27T07:21:36;23.98;;;9.88;;
65835;SDS011;52595;51.608;7.216;2024-01-27T07:24:02;23.55;;;9.70;;
65835;SDS011;52595;51.608;7.216;2024-01-27T07:26:28;21.40;;;9.63;;
65835;SDS011;52595;51.608;7.216;2024-01-27T07:28:53;24.30;;;9.65;;
65835;SDS011;52595;51.608;7.216;2024-01-27T07:31:19;28.83;;;10.60;;
65835;SDS011;52595;51.608;7.216;2024-01-27T07:33:45;27.17;;;10.55;;
65835;SDS011;52595;51.608;7.216;2024-01-27T07:36:10;22.85;;;9.90;;
65835;SDS011;52595;51.608;7.216;2024-01-27T07:38:36;24.08;;;9.35;;
65835;SDS011;52595;51.608;7.216;2024-01-27T07:41:02;27.52;;;10.20;;
65835;SDS011;52595;51.608;7.216;2024-01-27T07:43:27;21.70;;;9.70;;
65835;SDS011;52595;51.608;7.216;2024-01-27T07:45:53;24.30;;;10.63;;
65835;SDS011;52595;51.608;7.216;2024-01-27T07:48:19;29.70;;;10.02;;
65835;SDS011;52595;51.608;7.216;2024-01-27T07:50:44;27.05;;;10.10;;
65835;SDS011;52595;51.608;7.216;2024-01-27T07:53:13;25.75;;;9.70;;
65835;SDS011;52595;51.608;7.216;2024-01-27T07:55:39;32.15;;;10.88;;
65835;SDS011;52595;51.608;7.216;2024-01-27T07:58:04;30.48;;;11.40;;
65835;SDS011;52595;51.608;7.216;2024-01-27T08:00:30;32.55;;;11.77;;
65835;SDS011;52595;51.608;7.216;2024-01-27T08:02:57;33.88;;;11.45;;
65835;SDS011;52595;51.608;7.216;2024-01-27T08:05:23;28.70;;;10.48;;
65835;SDS011;52595;51.608;7.216;2024-01-27T08:07:48;20.85;;;11.02;;
65835;SDS011;52595;51.608;7.216;2024-01-27T08:10:14;29.13;;;11.00;;
65835;SDS011;52595;51.608;7.216;2024-01-27T08:12:39;31.13;;;10.90;;
65835;SDS011;52595;51.608;7.216;2024-01-27T08:15:05;32.83;;;10.70;;
65835;SDS011;52595;51.608;7.216;2024-01-27T08:17:31;29.45;;;10.98;;
65835;SDS011;52595;51.608;7.216;2024-01-27T08:19:56;33.47;;;11.45;;
65835;SDS011;52595;51.608;7.216;2024-01-27T08:22:21;28.15;;;10.73;;
65835;SDS011;52595;51.608;7.216;2024-01-27T08:24:47;32.50;;;10.02;;
65835;SDS011;52595;51.608;7.216;2024-01-27T08:27:12;21.23;;;8.38;;
65835;SDS011;52595;51.608;7.216;2024-01-27T08:29:37;24.45;;;9.75;;
65835;SDS011;52595;51.608;7.216;2024-01-27T08:32:03;22.63;;;9.35;;
65835;SDS011;52595;51.608;7.216;2024-01-27T08:34:28;17.88;;;8.13;;
65835;SDS011;52595;51.608;7.216;2024-01-27T08:36:59;22.98;;;8.50;;
65835;SDS011;52595;51.608;7.216;2024-01-27T08:39:25;18.65;;;7.90;;
65835;SDS011;52595;51.608;7.216;2024-01-27T08:41:51;18.35;;;7.82;;
65835;SDS011;52595;51.608;7.216;2024-01-27T08:44:16;17.17;;;7.18;;
65835;SDS011;52595;51.608;7.216;2024-01-27T08:46:42;24.08;;;7.32;;
65835;SDS011;52595;51.608;7.216;2024-01-27T08:49:07;21.63;;;7.28;;
65835;SDS011;52595;51.608;7.216;2024-01-27T08:51:32;21.65;;;7.10;;
65835;SDS011;52595;51.608;7.216;2024-01-27T08:53:58;21.30;;;6.72;;
65835;SDS011;52595;51.608;7.216;2024-01-27T08:56:23;16.33;;;6.28;;
65835;SDS011;52595;51.608;7.216;2024-01-27T08:58:48;20.70;;;6.78;;
65835;SDS011;52595;51.608;7.216;2024-01-27T09:01:18;17.85;;;6.53;;
65835;SDS011;52595;51.608;7.216;2024-01-27T09:03:44;15.32;;;5.82;;
65835;SDS011;52595;51.608;7.216;2024-01-27T09:06:09;22.13;;;6.53;;
65835;SDS011;52595;51.608;7.216;2024-01-27T09:08:35;19.15;;;5.82;;
65835;SDS011;52595;51.608;7.216;2024-01-27T09:11:01;18.35;;;6.03;;
65835;SDS011;52595;51.608;7.216;2024-01-27T09:13:27;16.95;;;6.43;;
65835;SDS011;52595;51.608;7.216;2024-01-27T09:15:52;18.88;;;6.82;;
65835;SDS011;52595;51.608;7.216;2024-01-27T09:18:18;22.38;;;7.20;;
65835;SDS011;52595;51.608;7.216;2024-01-27T09:20:43;17.50;;;6.40;;
65835;SDS011;52595;51.608;7.216;2024-01-27T09:23:09;27.23;;;6.05;;
65835;SDS011;52595;51.608;7.216;2024-01-27T09:25:34;24.98;;;6.72;;
65835;SDS011;52595;51.608;7.216;2024-01-27T09:27:59;22.38;;;6.65;;
65835;SDS011;52595;51.608;7.216;2024-01-27T09:30:28;15.55;;;5.65;;
65835;SDS011;52595;51.608;7.216;2024-01-27T09:32:53;18.05;;;6.00;;
65835;SDS011;52595;51.608;7.216;2024-01-27T09:35:19;18.83;;;6.25;;
65835;SDS011;52595;51.608;7.216;2024-01-27T09:37:45;15.50;;;5.95;;
65835;SDS011;52595;51.608;7.216;2024-01-27T09:40:11;18.88;;;6.00;;
65835;SDS011;52595;51.608;7.216;2024-01-27T09:42:37;18.25;;;6.50;;
65835;SDS011;52595;51.608;7.216;2024-01-27T09:45:06;17.55;;;6.38;;
65835;SDS011;52595;51.608;7.216;2024-01-27T09:47:34;24.23;;;6.72;;
65835;SDS011;52595;51.608;7.216;2024-01-27T09:50:01;19.30;;;5.63;;
65835;SDS011;52595;51.608;7.216;2024-01-27T09:52:26;19.92;;;6.07;;
65835;SDS011;52595;51.608;7.216;2024-01-27T09:54:52;22.00;;;6.93;;
65835;SDS011;52595;51.608;7.216;2024-01-27T09:57:17;13.95;;;5.68;;
65835;SDS011;52595;51.608;7.216;2024-01-27T09:59:45;15.57;;;5.50;;
65835;SDS011;52595;51.608;7.216;2024-01-27T10:02:12;22.17;;;5.60;;
65835;SDS011;52595;51.608;7.216;2024-01-27T10:04:42;17.83;;;5.82;;
65835;SDS011;52595;51.608;7.216;2024-01-27T10:07:08;22.48;;;6.15;;
65835;SDS011;52595;51.608;7.216;2024-01-27T10:09:33;14.93;;;5.35;;
65835;SDS011;52595;51.608;7.216;2024-01-27T10:11:59;23.73;;;5.38;;
65835;SDS011;52595;51.608;7.216;2024-01-27T10:14:37;17.48;;;5.28;;
65835;SDS011;52595;51.608;7.216;2024-01-27T10:17:05;12.43;;;4.30;;
65835;SDS011;52595;51.608;7.216;2024-01-27T10:19:35;25.90;;;5.55;;
65835;SDS011;52595;51.608;7.216;2024-01-27T10:22:00;11.55;;;4.38;;
65835;SDS011;52595;51.608;7.216;2024-01-27T10:24:31;15.57;;;4.90;;
65835;SDS011;52595;51.608;7.216;2024-01-27T10:27:02;16.63;;;4.97;;
65835;SDS011;52595;51.608;7.216;2024-01-27T10:29:29;15.52;;;4.40;;
65835;SDS011;52595;51.608;7.216;2024-01-27T10:32:07;11.25;;;4.32;;
65835;SDS011;52595;51.608;7.216;2024-01-27T10:34:34;15.13;;;4.60;;
65835;SDS011;52595;51.608;7.216;2024-01-27T10:36:59;14.65;;;4.70;;
65835;SDS011;52595;51.608;7.216;2024-01-27T10:39:25;14.52;;;4.38;;
65835;SDS011;52595;51.608;7.216;2024-01-27T10:41:50;16.27;;;4.45;;
65835;SDS011;52595;51.608;7.216;2024-01-27T10:44:17;17.45;;;4.68;;
65835;SDS011;52595;51.608;7.216;2024-01-27T10:46:44;16.10;;;3.97;;
65835;SDS011;52595;51.608;7.216;2024-01-27T10:49:14;14.90;;;4.30;;
65835;SDS011;52595;51.608;7.216;2024-01-27T10:51:59;11.50;;;4.30;;
65835;SDS011;52595;51.608;7.216;2024-01-27T10:54:28;18.42;;;4.30;;
65835;SDS011;52595;51.608;7.216;2024-01-27T10:56:57;16.67;;;4.40;;
65835;SDS011;52595;51.608;7.216;2024-01-27T10:59:23;18.23;;;4.72;;
65835;SDS011;52595;51.608;7.216;2024-01-27T11:01:52;14.57;;;4.70;;
65835;SDS011;52595;51.608;7.216;2024-01-27T11:04:19;13.30;;;4.15;;
65835;SDS011;52595;51.608;7.216;2024-01-27T11:06:45;15.93;;;4.30;;
65835;SDS011;52595;51.608;7.216;2024-01-27T11:09:14;17.40;;;3.85;;
65835;SDS011;52595;51.608;7.216;2024-01-27T11:11:40;17.75;;;4.43;;
65835;SDS011;52595;51.608;7.216;2024-01-27T11:14:07;12.38;;;4.20;;
65835;SDS011;52595;51.608;7.216;2024-01-27T11:16:34;16.83;;;4.30;;
65835;SDS011;52595;51.608;7.216;2024-01-27T11:19:00;16.42;;;5.05;;
65835;SDS011;52595;51.608;7.216;2024-01-27T11:21:25;14.88;;;4.70;;
65835;SDS011;52595;51.608;7.216;2024-01-27T11:23:51;15.23;;;4.25;;
65835;SDS011;52595;51.608;7.216;2024-01-27T11:26:17;13.77;;;3.80;;
65835;SDS011;52595;51.608;7.216;2024-01-27T11:28:45;15.63;;;4.65;;
65835;SDS011;52595;51.608;7.216;2024-01-27T11:31:10;15.90;;;4.00;;
65835;SDS011;52595;51.608;7.216;2024-01-27T11:33:43;14.65;;;3.97;;
65835;SDS011;52595;51.608;7.216;2024-01-27T11:36:14;12.95;;;3.83;;
65835;SDS011;52595;51.608;7.216;2024-01-27T11:38:43;10.70;;;4.15;;
65835;SDS011;52595;51.608;7.216;2024-01-27T11:41:09;15.00;;;4.15;;
65835;SDS011;52595;51.608;7.216;2024-01-27T11:43:34;14.70;;;4.20;;
65835;SDS011;52595;51.608;7.216;2024-01-27T11:46:00;14.27;;;4.15;;
65835;SDS011;52595;51.608;7.216;2024-01-27T11:48:26;12.77;;;4.20;;
65835;SDS011;52595;51.608;7.216;2024-01-27T11:51:28;13.05;;;4.20;;
65835;SDS011;52595;51.608;7.216;2024-01-27T11:53:48;11.95;;;4.00;;
65835;SDS011;52595;51.608;7.216;2024-01-27T11:56:13;12.82;;;4.30;;
65835;SDS011;52595;51.608;7.216;2024-01-27T11:58:45;16.92;;;5.63;;
65835;SDS011;52595;51.608;7.216;2024-01-27T12:01:11;12.65;;;4.15;;
65835;SDS011;52595;51.608;7.216;2024-01-27T12:03:36;16.08;;;4.50;;
65835;SDS011;52595;51.608;7.216;2024-01-27T12:06:02;17.70;;;4.20;;
65835;SDS011;52595;51.608;7.216;2024-01-27T12:08:27;16.05;;;4.78;;
65835;SDS011;52595;51.608;7.216;2024-01-27T12:10:53;15.02;;;4.45;;
65835;SDS011;52595;51.608;7.216;2024-01-27T12:13:18;12.80;;;4.25;;
65835;SDS011;52595;51.608;7.216;2024-01-27T12:15:44;18.48;;;5.40;;
65835;SDS011;52595;51.608;7.216;2024-01-27T12:18:09;14.63;;;4.95;;
65835;SDS011;52595;51.608;7.216;2024-01-27T12:20:35;18.17;;;5.22;;
65835;SDS011;52595;51.608;7.216;2024-01-27T12:23:03;18.42;;;4.30;;
65835;SDS011;52595;51.608;7.216;2024-01-27T12:25:31;12.65;;;4.43;;
65835;SDS011;52595;51.608;7.216;2024-01-27T12:27:57;13.57;;;4.53;;
65835;SDS011;52595;51.608;7.216;2024-01-27T12:30:27;10.90;;;4.60;;
65835;SDS011;52595;51.608;7.216;2024-01-27T12:32:52;14.55;;;4.78;;
65835;SDS011;52595;51.608;7.216;2024-01-27T12:35:18;13.68;;;4.93;;
65835;SDS011;52595;51.608;7.216;2024-01-27T12:37:43;18.90;;;5.00;;
65835;SDS011;52595;51.608;7.216;2024-01-27T12:40:18;17.00;;;4.93;;
65835;SDS011;52595;51.608;7.216;2024-01-27T12:42:45;16.13;;;5.07;;
65835;SDS011;52595;51.608;7.216;2024-01-27T12:45:11;13.82;;;4.95;;
65835;SDS011;52595;51.608;7.216;2024-01-27T12:47:36;13.07;;;5.43;;
65835;SDS011;52595;51.608;7.216;2024-01-27T12:50:02;15.40;;;4.97;;
65835;SDS011;52595;51.608;7.216;2024-01-27T12:52:27;16.40;;;4.90;;
65835;SDS011;52595;51.608;7.216;2024-01-27T12:54:53;16.02;;;5.05;;
65835;SDS011;52595;51.608;7.216;2024-01-27T12:57:18;16.42;;;5.35;;
65835;SDS011;52595;51.608;7.216;2024-01-27T12:59:44;14.88;;;4.85;;
65835;SDS011;52595;51.608;7.216;2024-01-27T13:02:10;15.93;;;4.97;;
65835;SDS011;52595;51.608;7.216;2024-01-27T13:04:36;14.88;;;5.47;;
65835;SDS011;52595;51.608;7.216;2024-01-27T13:07:02;15.50;;;5.47;;
65835;SDS011;52595;51.608;7.216;2024-01-27T13:09:27;18.30;;;6.28;;
65835;SDS011;52595;51.608;7.216;2024-01-27T13:11:52;14.32;;;5.50;;
65835;SDS011;52595;51.608;7.216;2024-01-27T13:14:18;14.80;;;5.60;;
65835;SDS011;52595;51.608;7.216;2024-01-27T13:16:45;15.38;;;5.78;;
65835;SDS011;52595;51.608;7.216;2024-01-27T13:19:10;15.05;;;6.20;;
65835;SDS011;52595;51.608;7.216;2024-01-27T13:21:36;13.50;;;5.80;;
65835;SDS011;52595;51.608;7.216;2024-01-27T13:24:01;13.63;;;6.30;;
65835;SDS011;52595;51.608;7.216;2024-01-27T13:26:27;18.80;;;6.75;;
65835;SDS011;52595;51.608;7.216;2024-01-27T13:28:53;16.63;;;6.47;;
65835;SDS011;52595;51.608;7.216;2024-01-27T13:31:18;13.43;;;6.07;;
65835;SDS011;52595;51.608;7.216;2024-01-27T13:33:44;14.90;;;6.47;;
65835;SDS011;52595;51.608;7.216;2024-01-27T13:36:09;14.57;;;6.20;;
65835;SDS011;52595;51.608;7.216;2024-01-27T13:38:35;12.80;;;6.10;;
65835;SDS011;52595;51.608;7.216;2024-01-27T13:41:00;18.17;;;6.00;;
65835;SDS011;52595;51.608;7.216;2024-01-27T13:43:26;15.88;;;6.45;;
65835;SDS011;52595;51.608;7.216;2024-01-27T13:45:51;14.65;;;6.50;;
65835;SDS011;52595;51.608;7.216;2024-01-27T13:48:19;13.30;;;6.15;;
65835;SDS011;52595;51.608;7.216;2024-01-27T13:50:45;15.40;;;6.53;;
65835;SDS011;52595;51.608;7.216;2024-01-27T13:53:10;16.15;;;5.53;;
65835;SDS011;52595;51.608;7.216;2024-01-27T13:55:36;25.15;;;6.07;;
65835;SDS011;52595;51.608;7.216;2024-01-27T13:58:02;13.88;;;5.90;;
65835;SDS011;52595;51.608;7.216;2024-01-27T14:00:28;13.20;;;5.55;;
65835;SDS011;52595;51.608;7.216;2024-01-27T14:02:54;14.30;;;6.00;;
65835;SDS011;52595;51.608;7.216;2024-01-27T14:05:19;14.27;;;5.68;;
65835;SDS011;52595;51.608;7.216;2024-01-27T14:07:45;18.80;;;5.65;;
65835;SDS011;52595;51.608;7.216;2024-01-27T14:10:10;12.27;;;5.10;;
65835;SDS011;52595;51.608;7.216;2024-01-27T14:12:36;13.70;;;5.68;;
65835;SDS011;52595;51.608;7.216;2024-01-27T14:15:02;15.18;;;5.07;;
65835;SDS011;52595;51.608;7.216;2024-01-27T14:17:29;13.95;;;5.57;;
65835;SDS011;52595;51.608;7.216;2024-01-27T14:19:55;14.95;;;5.53;;
65835;SDS011;52595;51.608;7.216;2024-01-27T14:22:20;16.27;;;5.25;;
65835;SDS011;52595;51.608;7.216;2024-01-27T14:24:45;15.60;;;5.20;;